Time;durP1;ratioP1;P1;durP2;ratioP2;P2;SDS_P1;SDS_P2;PMS_P1;PMS_P2;Temp;Humidity;BMP_temperature;BMP_pressure;BME280_temperature;BME280_humidity;BME280_pressure;Samples;Min_cycle;Max_cycle;Signal;HPM_P1;HPM_P2
2023/06/16 00:02:21;;;;;;;11.25;4.80;;;;;;;21.18;36.49;101784.06;4964626;28;113823;-60
2023/06/16 00:04:52;;;;;;;8.68;4.60;;;;;;;21.14;36.71;101787.97;4969459;28;124498;-60
2023/06/16 00:07:19;;;;;;;7.90;4.90;;;;;;;21.07;36.88;101784.00;4972010;28;124820;-60
2023/06/16 00:09:47;;;;;;;9.18;4.70;;;;;;;21.01;36.87;101781.78;4968818;28;114601;-60
2023/06/16 00:12:14;;;;;;;7.65;4.53;;;;;;;20.95;37.13;101787.63;4969913;28;113669;-59
2023/06/16 00:14:42;;;;;;;7.80;4.57;;;;;;;20.89;37.09;101777.28;4968500;28;124444;-59
2023/06/16 00:17:10;;;;;;;8.65;4.35;;;;;;;20.84;37.32;101779.47;4968820;28;124890;-60
2023/06/16 00:19:39;;;;;;;7.88;4.25;;;;;;;20.79;37.30;101772.59;4966623;28;114349;-60
2023/06/16 00:22:07;;;;;;;6.88;4.15;;;;;;;20.75;37.36;101776.47;4969520;28;114039;-60
2023/06/16 00:24:35;;;;;;;6.15;4.45;;;;;;;20.71;37.24;101780.34;4968688;28;123858;-60
2023/06/16 00:27:02;;;;;;;8.82;4.45;;;;;;;20.67;37.27;101773.47;4968932;28;124251;-60
2023/06/16 00:29:29;;;;;;;14.57;4.63;;;;;;;20.64;37.50;101773.69;4968380;28;115179;-60
2023/06/16 00:31:56;;;;;;;8.40;4.05;;;;;;;20.61;37.41;101769.41;4952238;28;114245;-60
2023/06/16 00:34:23;;;;;;;9.05;4.38;;;;;;;20.57;37.62;101783.19;4969122;28;123390;-60
2023/06/16 00:36:51;;;;;;;8.55;4.05;;;;;;;20.54;37.71;101769.94;4967896;28;124923;-60
2023/06/16 00:39:18;;;;;;;12.70;4.85;;;;;;;20.53;37.59;101770.88;4970099;28;116254;-61
2023/06/16 00:41:45;;;;;;;5.88;4.25;;;;;;;20.51;37.65;101772.84;4970162;28;114017;-60
2023/06/16 00:44:12;;;;;;;7.78;4.25;;;;;;;20.47;37.94;101768.66;4968307;28;123881;-60
2023/06/16 00:46:40;;;;;;;8.80;5.00;;;;;;;20.47;37.71;101771.34;4969935;28;123282;-60
2023/06/16 00:49:07;;;;;;;9.88;4.55;;;;;;;20.44;37.94;101772.44;4968352;28;114713;-61
2023/06/16 00:51:35;;;;;;;10.18;4.28;;;;;;;20.43;37.82;101776.94;4967456;28;114101;-60
2023/06/16 00:54:02;;;;;;;9.85;4.72;;;;;;;20.41;38.07;101770.81;4967448;28;122962;-60
2023/06/16 00:56:30;;;;;;;9.70;4.43;;;;;;;20.40;37.90;101771.78;4955863;28;124626;-60
2023/06/16 00:58:58;;;;;;;9.27;4.60;;;;;;;20.36;37.87;101764.03;4970011;28;114623;-61
2023/06/16 01:01:28;;;;;;;7.28;4.38;;;;;;;20.31;37.80;101761.69;4969836;28;114249;-59
2023/06/16 01:03:55;;;;;;;10.20;4.60;;;;;;;20.27;37.88;101765.56;4968631;28;124669;-60
2023/06/16 01:06:35;;;;;;;8.45;4.88;;;;;;;20.23;38.26;101764.06;4968355;28;123055;-60
2023/06/16 01:09:26;;;;;;;6.55;4.68;;;;;;;20.18;38.09;101760.84;4970911;28;114442;-60
2023/06/16 01:12:24;;;;;;;6.93;4.65;;;;;;;20.13;38.29;101763.00;4956000;28;113941;-60
2023/06/16 01:15:01;;;;;;;6.57;4.88;;;;;;;20.08;38.32;101759.75;4967629;28;123761;-59
2023/06/16 01:17:30;;;;;;;8.05;4.93;;;;;;;20.02;38.45;101759.25;4968418;28;122951;-60
2023/06/16 01:20:09;;;;;;;8.70;5.22;;;;;;;20.00;38.59;101749.53;4971990;28;113320;-60
2023/06/16 01:22:36;;;;;;;10.07;4.95;;;;;;;19.97;38.74;101753.31;4961670;28;114341;-60
2023/06/16 01:25:04;;;;;;;7.30;5.15;;;;;;;19.92;38.92;101750.09;4969798;28;124466;-59
2023/06/16 01:27:32;;;;;;;10.23;5.10;;;;;;;19.87;38.99;101760.28;4956436;28;122954;-60
2023/06/16 01:30:02;;;;;;;10.07;5.28;;;;;;;19.81;39.20;101763.41;4969676;28;115646;-61
2023/06/16 01:32:31;;;;;;;8.25;5.57;;;;;;;19.76;39.32;101760.19;4967979;28;115372;-60
2023/06/16 01:35:00;;;;;;;9.90;5.70;;;;;;;19.70;39.39;101765.97;4968355;28;124295;-60
2023/06/16 01:37:28;;;;;;;10.23;5.20;;;;;;;19.64;39.67;101765.41;4968893;28;122335;-60
2023/06/16 01:39:57;;;;;;;9.60;5.80;;;;;;;19.60;39.45;101766.59;4968751;28;113486;-60
2023/06/16 01:42:25;;;;;;;10.98;5.85;;;;;;;19.56;39.61;101765.06;4967323;28;114072;-59
2023/06/16 01:44:53;;;;;;;7.35;4.75;;;;;;;19.53;39.72;101757.22;4968061;28;122908;-60
2023/06/16 01:47:21;;;;;;;11.15;5.00;;;;;;;19.50;39.73;101765.50;4968980;28;123120;-60
2023/06/16 01:49:50;;;;;;;8.75;5.40;;;;;;;19.48;39.82;101764.75;4965339;28;114546;-60
2023/06/16 01:52:17;;;;;;;9.65;5.32;;;;;;;19.44;39.92;101760.56;4966144;28;114095;-61
2023/06/16 01:54:44;;;;;;;7.78;4.80;;;;;;;19.39;40.13;101762.69;4981642;28;123784;-61
2023/06/16 01:57:12;;;;;;;9.77;5.00;;;;;;;19.35;40.27;101758.50;4967603;28;124066;-60
2023/06/16 01:59:39;;;;;;;8.40;5.18;;;;;;;19.31;40.42;101767.69;4968079;28;113910;-60
2023/06/16 02:02:16;;;;;;;7.57;4.68;;;;;;;19.26;40.69;101758.13;4969570;28;113064;-60
2023/06/16 02:04:48;;;;;;;9.80;4.85;;;;;;;19.22;40.52;101753.94;4968619;28;124248;-61
2023/06/16 02:07:33;;;;;;;11.93;4.90;;;;;;;19.18;40.42;101751.56;4969224;28;123891;-60
2023/06/16 02:10:03;;;;;;;9.55;5.10;;;;;;;19.12;40.39;101749.28;4952585;28;113503;-60
2023/06/16 02:12:31;;;;;;;6.45;4.80;;;;;;;19.09;40.40;101750.34;4967654;28;113685;-60
2023/06/16 02:14:58;;;;;;;6.68;4.78;;;;;;;19.07;40.53;101757.66;4968116;28;123558;-60
2023/06/16 02:17:28;;;;;;;9.35;5.07;;;;;;;19.03;40.85;101756.13;4967924;28;124012;-60
2023/06/16 02:19:58;;;;;;;7.78;5.43;;;;;;;18.98;40.83;101759.09;4970209;28;115929;-61
2023/06/16 02:22:25;;;;;;;7.38;5.43;;;;;;;18.93;40.96;101760.38;4969135;28;114915;-60
2023/06/16 02:24:54;;;;;;;9.45;5.10;;;;;;;18.88;40.98;101754.47;4970763;28;124059;-60
2023/06/16 02:27:22;;;;;;;7.60;5.05;;;;;;;18.84;41.01;101760.03;4970162;28;123019;-59
2023/06/16 02:29:49;;;;;;;7.88;5.18;;;;;;;18.80;41.16;101766.56;4967690;28;114322;-60
2023/06/16 02:32:16;;;;;;;9.73;5.18;;;;;;;18.77;41.05;101755.97;4972606;28;114169;-60
2023/06/16 02:34:44;;;;;;;7.00;5.30;;;;;;;18.74;41.07;101760.69;4972052;28;124786;-60
2023/06/16 02:37:12;;;;;;;10.10;4.72;;;;;;;18.70;41.15;101754.66;4971773;28;123551;-59
2023/06/16 02:39:40;;;;;;;9.65;4.95;;;;;;;18.66;41.00;101753.13;4969642;28;114661;-59
2023/06/16 02:42:11;;;;;;;8.10;5.43;;;;;;;18.63;41.09;101753.34;4971285;28;113247;-59
2023/06/16 02:44:39;;;;;;;7.55;5.15;;;;;;;18.60;41.07;101753.53;4953390;28;123794;-59
2023/06/16 02:47:06;;;;;;;7.95;5.13;;;;;;;18.56;41.29;101752.00;4970959;28;122700;-59
2023/06/16 02:49:34;;;;;;;8.25;5.15;;;;;;;18.52;41.44;101756.72;4968029;28;114344;-60
2023/06/16 02:52:01;;;;;;;6.55;4.70;;;;;;;18.48;41.39;101750.69;4971348;28;113346;-59
2023/06/16 02:54:29;;;;;;;8.93;5.00;;;;;;;18.43;41.64;101758.16;4968219;28;124313;-59
2023/06/16 02:56:58;;;;;;;9.35;5.25;;;;;;;18.39;41.66;101755.78;4971321;28;122981;-59
2023/06/16 02:59:41;;;;;;;6.60;4.55;;;;;;;18.33;41.63;101748.97;4970316;28;114178;-59
2023/06/16 03:02:09;;;;;;;8.20;5.43;;;;;;;18.31;41.94;101753.56;4969816;28;113181;-59
2023/06/16 03:04:45;;;;;;;9.93;4.95;;;;;;;18.26;41.89;101755.69;4970115;28;123568;-59
2023/06/16 03:07:20;;;;;;;11.50;5.38;;;;;;;18.21;41.91;101758.63;4971323;28;125522;-61
2023/06/16 03:09:47;;;;;;;10.18;5.03;;;;;;;18.19;42.03;101754.34;4970841;28;114447;-59
2023/06/16 03:12:15;;;;;;;9.57;5.13;;;;;;;18.14;42.17;101753.75;4971052;28;114201;-59
2023/06/16 03:14:54;;;;;;;9.63;5.18;;;;;;;18.12;42.20;101753.00;4967935;28;126017;-62
2023/06/16 03:17:22;;;;;;;9.30;5.35;;;;;;;18.07;42.10;101756.81;4970317;28;123667;-63
2023/06/16 03:19:50;;;;;;;7.40;5.20;;;;;;;18.05;42.37;101764.09;4971081;28;113988;-62
2023/06/16 03:22:25;;;;;;;7.22;4.72;;;;;;;18.02;42.60;101766.97;4953036;28;116152;-63
2023/06/16 03:24:53;;;;;;;11.95;5.75;;;;;;;18.00;42.73;101758.16;4969859;28;123459;-62
2023/06/16 03:27:21;;;;;;;9.00;5.53;;;;;;;17.98;42.48;101757.38;4970676;28;123300;-62
2023/06/16 03:29:53;;;;;;;9.38;5.47;;;;;;;17.97;42.48;101761.03;4970264;28;113465;-62
2023/06/16 03:32:20;;;;;;;11.98;5.55;;;;;;;17.95;42.78;101757.59;4969997;28;113271;-61
2023/06/16 03:34:48;;;;;;;7.50;5.07;;;;;;;17.96;42.49;101761.97;4952214;28;124633;-61
2023/06/16 03:37:17;;;;;;;7.93;5.28;;;;;;;17.92;42.55;101763.13;4956529;28;123014;-61
2023/06/16 03:39:45;;;;;;;9.05;5.43;;;;;;;17.89;42.70;101757.94;4966727;28;113489;-62
2023/06/16 03:42:12;;;;;;;7.47;5.20;;;;;;;17.88;42.71;101750.88;4971055;28;113291;-61
2023/06/16 03:44:41;;;;;;;8.20;5.28;;;;;;;17.87;42.80;101765.22;4969637;28;122897;-62
2023/06/16 03:47:09;;;;;;;8.93;5.53;;;;;;;17.85;42.92;101757.28;4970770;28;123586;-62
2023/06/16 03:49:37;;;;;;;8.60;5.13;;;;;;;17.86;43.04;101763.53;4970335;28;113441;-62
2023/06/16 03:52:05;;;;;;;10.27;6.15;;;;;;;17.86;42.99;101763.53;4970599;28;113725;-62
2023/06/16 03:54:32;;;;;;;9.18;5.97;;;;;;;17.86;43.21;101774.25;4970854;28;123920;-63
2023/06/16 03:57:00;;;;;;;10.65;6.03;;;;;;;17.86;43.04;101768.88;4971361;28;123152;-63
2023/06/16 03:59:30;;;;;;;8.82;5.82;;;;;;;17.86;43.10;101768.88;4969283;28;114482;-63
2023/06/16 04:01:57;;;;;;;9.52;5.80;;;;;;;17.86;43.10;101768.88;4970987;28;115138;-60
2023/06/16 04:04:27;;;;;;;8.35;5.57;;;;;;;17.85;43.05;101772.50;4969270;28;123119;-60
2023/06/16 04:06:57;;;;;;;9.05;5.90;;;;;;;17.84;43.09;101770.75;4969208;28;123222;-60
2023/06/16 04:09:25;;;;;;;8.13;5.90;;;;;;;17.83;42.98;101774.38;4969715;28;113434;-60
2023/06/16 04:11:52;;;;;;;8.48;6.38;;;;;;;17.80;43.28;101770.09;4970377;28;112815;-61
2023/06/16 04:14:21;;;;;;;10.05;6.18;;;;;;;17.79;43.19;101767.50;4969110;28;123323;-60
2023/06/16 04:16:51;;;;;;;9.82;6.07;;;;;;;17.79;43.40;101767.50;4955221;28;123083;-60
2023/06/16 04:19:19;;;;;;;8.60;6.00;;;;;;;17.80;43.54;101774.56;4969845;28;114357;-61
2023/06/16 04:21:47;;;;;;;12.10;6.55;;;;;;;17.82;43.51;101775.31;4969122;28;113291;-60
2023/06/16 04:24:18;;;;;;;10.20;6.90;;;;;;;17.83;43.59;101771.69;4965428;28;123762;-61
2023/06/16 04:26:49;;;;;;;8.43;5.82;;;;;;;17.82;43.71;101773.53;4970009;28;123252;-61
2023/06/16 04:29:17;;;;;;;11.23;6.22;;;;;;;17.81;43.93;101776.28;4967293;28;114733;-60
2023/06/16 04:31:51;;;;;;;10.60;6.10;;;;;;;17.83;44.31;101777.06;4969396;28;113808;-61
2023/06/16 04:34:19;;;;;;;7.47;6.25;;;;;;;17.83;44.25;101779.75;4968518;28;123488;-60
2023/06/16 04:36:46;;;;;;;10.90;6.60;;;;;;;17.84;44.38;101782.38;4970073;28;123547;-60
2023/06/16 04:39:22;;;;;;;9.63;6.38;;;;;;;17.86;44.63;101779.59;4970037;28;113230;-60
2023/06/16 04:41:50;;;;;;;12.10;7.03;;;;;;;17.89;44.63;101780.28;4969687;28;113781;-59
2023/06/16 04:44:17;;;;;;;10.07;7.80;;;;;;;17.94;44.59;101777.31;4968170;28;123135;-59
2023/06/16 04:46:45;;;;;;;8.40;6.78;;;;;;;18.00;44.70;101782.28;4986173;28;123539;-60
2023/06/16 04:49:14;;;;;;;12.43;7.80;;;;;;;18.07;44.92;101783.63;4967877;28;114473;-61
2023/06/16 04:51:41;;;;;;;11.05;7.30;;;;;;;18.18;44.97;101779.44;4969467;28;114613;-60
2023/06/16 04:54:08;;;;;;;10.85;7.68;;;;;;;18.30;45.23;101786.69;4966790;28;124335;-60
2023/06/16 04:56:36;;;;;;;12.25;7.78;;;;;;;18.42;45.29;101783.25;4969558;28;123255;-60
2023/06/16 04:59:03;;;;;;;13.27;8.35;;;;;;;18.56;45.36;101779.69;4966794;28;113711;-61
2023/06/16 05:01:30;;;;;;;10.77;8.30;;;;;;;18.68;45.22;101778.03;4970317;28;113640;-62
2023/06/16 05:03:57;;;;;;;12.60;8.70;;;;;;;18.81;45.29;101784.38;4968401;28;123730;-62
2023/06/16 05:06:34;;;;;;;13.25;8.57;;;;;;;18.95;45.48;101790.66;4953420;28;123507;-62
2023/06/16 05:09:04;;;;;;;12.73;8.75;;;;;;;19.05;45.25;101781.06;4969813;28;113516;-62
2023/06/16 05:11:32;;;;;;;13.85;8.25;;;;;;;19.17;45.00;101785.59;4970010;28;113136;-62
2023/06/16 05:14:00;;;;;;;12.82;8.63;;;;;;;19.24;44.81;101786.91;4967304;28;123385;-62
2023/06/16 05:16:28;;;;;;;15.65;8.48;;;;;;;19.35;45.23;101788.03;4968899;28;123154;-62
2023/06/16 05:18:56;;;;;;;11.50;7.60;;;;;;;19.44;45.11;101792.78;4969653;28;113986;-62
2023/06/16 05:21:25;;;;;;;11.75;7.95;;;;;;;19.53;44.69;101786.78;4969178;28;113343;-62
2023/06/16 05:23:55;;;;;;;12.88;7.53;;;;;;;19.61;44.59;101784.44;4968013;28;123220;-62
2023/06/16 05:26:24;;;;;;;12.18;7.80;;;;;;;19.69;44.72;101791.13;4958710;28;124014;-60
2023/06/16 05:28:52;;;;;;;12.55;8.00;;;;;;;19.78;44.48;101787.84;4967898;28;113453;-60
2023/06/16 05:31:22;;;;;;;9.38;7.55;;;;;;;19.87;44.54;101789.88;4970025;28;113330;-60
2023/06/16 05:33:49;;;;;;;10.77;7.43;;;;;;;19.97;44.39;101785.59;4970265;28;124149;-60
2023/06/16 05:36:16;;;;;;;13.50;8.00;;;;;;;20.10;44.55;101782.03;4969064;28;122885;-61
2023/06/16 05:38:45;;;;;;;11.35;7.85;;;;;;;20.22;44.41;101784.72;4969159;28;114491;-60
2023/06/16 05:41:13;;;;;;;12.57;7.65;;;;;;;20.33;44.16;101786.66;4968326;28;115094;-60
2023/06/16 05:43:44;;;;;;;12.88;7.57;;;;;;;20.42;44.06;101791.38;4968947;28;123210;-61
2023/06/16 05:46:13;;;;;;;10.25;7.82;;;;;;;20.51;44.06;101794.38;4951475;28;123367;-60
2023/06/16 05:48:40;;;;;;;10.88;8.10;;;;;;;20.63;43.95;101798.91;4969635;28;114594;-60
2023/06/16 05:51:12;;;;;;;10.63;7.43;;;;;;;20.74;43.82;101804.38;4968740;28;113215;-60
2023/06/16 05:53:40;;;;;;;11.65;7.50;;;;;;;20.86;43.70;101797.22;4968276;28;124125;-61
2023/06/16 05:56:07;;;;;;;12.48;7.78;;;;;;;20.98;43.30;101798.16;4972364;28;122955;-61
2023/06/16 05:58:37;;;;;;;11.35;7.32;;;;;;;21.10;43.43;101808.03;4972015;28;113986;-61
2023/06/16 06:01:06;;;;;;;11.98;7.28;;;;;;;21.22;42.98;101805.38;4970054;28;113684;-62
2023/06/16 06:03:35;;;;;;;12.85;7.18;;;;;;;21.37;42.83;101804.22;4971115;28;123629;-62
2023/06/16 06:06:04;;;;;;;13.45;6.95;;;;;;;21.50;42.62;101814.97;4971946;28;123400;-60
2023/06/16 06:08:32;;;;;;;11.15;6.97;;;;;;;21.64;42.54;101816.63;4972697;28;113437;-60
2023/06/16 06:11:01;;;;;;;7.88;6.25;;;;;;;21.79;42.36;101810.03;4960972;28;113182;-60
2023/06/16 06:13:29;;;;;;;12.05;6.45;;;;;;;21.92;42.13;101805.41;4962051;28;123929;-60
2023/06/16 06:15:56;;;;;;;9.18;6.70;;;;;;;22.07;41.97;101818.69;4955832;28;123369;-62
2023/06/16 06:18:24;;;;;;;8.68;6.07;;;;;;;22.20;41.60;101814.03;4972339;28;113205;-62
2023/06/16 06:20:51;;;;;;;8.63;6.30;;;;;;;22.35;41.16;101823.66;4972422;28;113042;-62
2023/06/16 06:23:19;;;;;;;8.95;5.95;;;;;;;22.47;41.16;101816.44;4970847;28;123368;-63
2023/06/16 06:25:47;;;;;;;9.20;5.72;;;;;;;22.63;40.89;101821.44;4971446;28;123513;-62
2023/06/16 06:28:19;;;;;;;8.63;5.75;;;;;;;22.80;40.99;101819.22;4968044;28;114440;-62
2023/06/16 06:30:46;;;;;;;12.00;5.97;;;;;;;22.98;40.87;101820.44;4967793;28;114093;-62
2023/06/16 06:33:14;;;;;;;10.85;6.43;;;;;;;23.16;40.27;101822.63;4970669;28;123189;-62
2023/06/16 06:35:41;;;;;;;10.75;5.15;;;;;;;23.33;40.06;101831.00;4965508;28;123972;-62
2023/06/16 06:38:08;;;;;;;10.55;5.63;;;;;;;23.49;39.68;101824.34;4970970;28;114499;-62
2023/06/16 06:40:36;;;;;;;9.23;5.18;;;;;;;23.64;39.36;101827.56;4971687;28;113253;-62
2023/06/16 06:43:05;;;;;;;11.30;5.18;;;;;;;23.79;39.44;101820.91;4970687;28;123414;-62
2023/06/16 06:45:47;;;;;;;6.03;4.70;;;;;;;24.00;38.96;101833.59;4960139;28;122936;-61
2023/06/16 06:48:14;;;;;;;7.72;4.63;;;;;;;24.18;38.60;101836.53;4969187;28;114137;-61
2023/06/16 06:50:42;;;;;;;7.05;4.80;;;;;;;24.34;38.14;101836.06;4960361;28;113528;-62
2023/06/16 06:53:09;;;;;;;7.25;4.90;;;;;;;24.46;37.95;101840.38;4970133;28;122930;-62
2023/06/16 06:55:37;;;;;;;6.88;4.57;;;;;;;24.58;37.62;101833.03;4967804;28;124508;-62
2023/06/16 06:58:04;;;;;;;7.68;4.80;;;;;;;24.74;37.74;101832.53;4967014;28;114664;-62
2023/06/16 07:00:32;;;;;;;8.98;4.75;;;;;;;24.90;37.36;101835.56;4967630;28;114323;-62
2023/06/16 07:02:59;;;;;;;6.68;4.40;;;;;;;25.05;36.99;101836.91;4970764;28;122975;-62
2023/06/16 07:05:27;;;;;;;8.05;4.50;;;;;;;25.20;36.50;101834.66;4968191;28;124590;-63
2023/06/16 07:07:54;;;;;;;6.65;4.38;;;;;;;25.34;36.38;101841.53;4969901;28;115077;-61
2023/06/16 07:10:21;;;;;;;8.60;4.25;;;;;;;25.48;36.08;101842.09;4965394;28;114335;-60
2023/06/16 07:12:48;;;;;;;6.18;4.40;;;;;;;25.59;35.64;101833.81;4953607;28;124799;-61
2023/06/16 07:15:16;;;;;;;8.00;4.38;;;;;;;25.67;34.48;101831.22;4951274;28;122853;-60
2023/06/16 07:17:43;;;;;;;4.57;3.33;;;;;;;25.70;34.29;101836.38;4980198;28;115102;-61
2023/06/16 07:20:11;;;;;;;5.35;3.75;;;;;;;25.75;33.77;101834.09;4969848;28;115260;-62
2023/06/16 07:22:38;;;;;;;5.47;3.85;;;;;;;25.80;33.59;101837.22;4968129;28;125374;-63
2023/06/16 07:25:06;;;;;;;6.25;3.38;;;;;;;25.88;33.10;101838.34;4969289;28;124185;-62
2023/06/16 07:27:33;;;;;;;6.07;3.58;;;;;;;25.98;32.79;101844.69;4968091;28;114123;-62
2023/06/16 07:30:04;;;;;;;6.97;4.10;;;;;;;26.09;32.62;101839.06;4961194;28;114551;-62
2023/06/16 07:32:31;;;;;;;7.90;3.80;;;;;;;26.19;32.43;101842.63;4952689;28;124117;-62
2023/06/16 07:34:58;;;;;;;6.88;3.80;;;;;;;26.24;32.13;101839.47;4963734;28;124207;-62
2023/06/16 07:37:25;;;;;;;7.63;3.42;;;;;;;26.29;31.87;101836.28;4949214;28;114330;-61
2023/06/16 07:39:53;;;;;;;5.50;3.97;;;;;;;26.32;31.75;101842.28;4963554;28;113890;-60
2023/06/16 07:42:20;;;;;;;6.13;3.20;;;;;;;26.39;31.76;101837.09;4948136;28;124770;-61
2023/06/16 07:44:47;;;;;;;6.70;3.47;;;;;;;26.46;31.71;101842.81;4949240;28;122666;-61
2023/06/16 07:47:15;;;;;;;6.22;3.55;;;;;;;26.54;30.89;101840.19;4961351;28;114240;-61
2023/06/16 07:49:42;;;;;;;4.88;3.40;;;;;;;26.58;31.15;101841.63;4951720;28;114442;-61
2023/06/16 07:52:11;;;;;;;4.25;2.92;;;;;;;26.65;31.09;101841.91;4960840;28;124069;-60
2023/06/16 07:54:41;;;;;;;10.27;3.75;;;;;;;26.76;30.62;101833.56;4966056;28;124319;-61
2023/06/16 07:57:08;;;;;;;5.50;3.30;;;;;;;26.88;30.65;101832.34;4950032;28;115112;-61
2023/06/16 07:59:35;;;;;;;5.25;3.30;;;;;;;26.98;30.40;101832.28;4952463;28;112983;-61
2023/06/16 08:02:03;;;;;;;6.03;3.40;;;;;;;27.09;30.82;101839.38;4962207;28;124172;-61
2023/06/16 08:04:30;;;;;;;8.57;3.72;;;;;;;27.21;29.86;101832.69;4970992;28;123618;-61
2023/06/16 08:06:58;;;;;;;7.32;3.72;;;;;;;27.29;29.93;101824.63;4968647;28;115305;-60
2023/06/16 08:09:25;;;;;;;7.75;3.60;;;;;;;27.36;30.48;101820.28;4969335;28;114596;-61
2023/06/16 08:11:52;;;;;;;6.25;3.47;;;;;;;27.50;30.13;101831.63;4968709;28;124402;-60
2023/06/16 08:14:20;;;;;;;4.53;3.13;;;;;;;27.64;29.52;101828.38;4969457;28;124042;-60
2023/06/16 08:16:47;;;;;;;5.13;3.08;;;;;;;27.74;29.17;101828.28;4968852;28;114338;-60
2023/06/16 08:19:14;;;;;;;4.43;2.88;;;;;;;27.77;28.93;101828.81;4968388;28;113689;-61
2023/06/16 08:21:42;;;;;;;4.68;2.78;;;;;;;27.86;28.51;101820.69;4968178;28;124333;-60
2023/06/16 08:24:09;;;;;;;3.20;2.50;;;;;;;27.92;28.18;101825.56;4967882;28;123828;-60
2023/06/16 08:26:36;;;;;;;5.60;2.85;;;;;;;27.98;27.36;101824.91;4968581;28;114367;-61
2023/06/16 08:29:08;;;;;;;5.88;2.70;;;;;;;27.99;27.40;101826.63;4970816;28;114264;-60
2023/06/16 08:31:36;;;;;;;3.55;2.65;;;;;;;28.03;26.92;101819.84;4966315;28;124150;-61
2023/06/16 08:34:03;;;;;;;7.13;2.85;;;;;;;28.08;26.73;101814.75;4966342;28;123862;-60
2023/06/16 08:36:32;;;;;;;5.63;2.70;;;;;;;28.13;26.68;101817.84;4968701;28;115013;-60
2023/06/16 08:38:59;;;;;;;5.57;2.70;;;;;;;28.20;27.04;101814.47;4967492;28;114989;-60
2023/06/16 08:41:28;;;;;;;4.50;3.00;;;;;;;28.30;27.10;101807.06;4967148;28;123776;-61
2023/06/16 08:43:56;;;;;;;6.18;2.88;;;;;;;28.43;27.30;101812.91;4958505;28;124171;-61
2023/06/16 08:46:23;;;;;;;4.20;2.80;;;;;;;28.54;26.51;101809.94;4968318;28;114265;-60
2023/06/16 08:48:51;;;;;;;4.55;3.00;;;;;;;28.56;26.83;101806.16;4968686;28;114023;-61
2023/06/16 08:51:21;;;;;;;3.67;2.83;;;;;;;28.65;26.98;101810.63;4967663;28;124219;-61
2023/06/16 08:53:52;;;;;;;4.43;2.85;;;;;;;28.74;26.66;101817.84;4968304;28;123842;-61
2023/06/16 08:56:20;;;;;;;6.38;3.30;;;;;;;28.82;26.66;101811.56;4967126;28;115190;-61
2023/06/16 08:58:47;;;;;;;5.68;3.00;;;;;;;28.91;26.56;101810.56;4971500;28;114734;-60
2023/06/16 09:01:15;;;;;;;5.65;2.97;;;;;;;28.99;26.54;101816.06;4967571;28;124172;-61
2023/06/16 09:03:47;;;;;;;7.82;3.20;;;;;;;29.08;26.26;101811.44;4962157;28;124576;-60
2023/06/16 09:06:15;;;;;;;4.63;2.88;;;;;;;29.14;25.96;101816.28;4952573;28;114317;-61
2023/06/16 09:08:42;;;;;;;4.32;3.00;;;;;;;29.21;25.79;101811.84;4968618;28;114108;-61
2023/06/16 09:11:09;;;;;;;5.88;3.15;;;;;;;29.28;25.64;101814.75;4959215;28;124404;-61
2023/06/16 09:13:42;;;;;;;5.28;3.15;;;;;;;29.35;25.43;101817.66;4968742;28;123860;-62
2023/06/16 09:16:15;;;;;;;8.05;3.30;;;;;;;29.41;26.23;101811.53;4966208;28;114897;-61
2023/06/16 09:18:44;;;;;;;5.00;2.78;;;;;;;29.53;26.78;101810.16;4956360;28;114583;-61
2023/06/16 09:21:12;;;;;;;4.18;2.92;;;;;;;29.68;26.50;101808.44;4965107;28;124115;-61
2023/06/16 09:23:42;;;;;;;3.75;3.00;;;;;;;29.78;25.90;101813.78;4968051;28;124171;-61
2023/06/16 09:26:12;;;;;;;4.50;2.90;;;;;;;29.86;25.87;101815.66;4968489;28;114665;-61
2023/06/16 09:28:39;;;;;;;4.30;2.70;;;;;;;29.91;25.23;101817.84;4967537;28;113706;-61
2023/06/16 09:31:08;;;;;;;5.22;3.00;;;;;;;29.91;25.05;101818.69;4966456;28;123397;-61
2023/06/16 09:33:40;;;;;;;4.18;3.00;;;;;;;29.94;24.94;101812.91;4968218;28;123997;-61
2023/06/16 09:36:11;;;;;;;4.72;3.00;;;;;;;29.95;24.64;101814.63;4966906;28;114118;-62
2023/06/16 09:38:40;;;;;;;4.43;3.00;;;;;;;29.95;24.93;101809.16;4970360;28;115042;-62
2023/06/16 09:41:17;;;;;;;4.47;2.90;;;;;;;29.99;25.26;101796.84;4970541;28;123987;-62
2023/06/16 09:43:45;;;;;;;4.18;3.00;;;;;;;30.03;25.63;101800.94;4970230;28;125300;-62
2023/06/16 09:46:14;;;;;;;6.38;3.10;;;;;;;30.09;25.30;101800.22;4967097;28;115260;-62
2023/06/16 09:48:49;;;;;;;6.15;3.00;;;;;;;30.08;25.07;101803.13;4966376;28;115232;-62
2023/06/16 09:51:18;;;;;;;5.80;3.65;;;;;;;30.08;25.65;101801.28;4966542;28;124109;-61
2023/06/16 09:53:48;;;;;;;4.88;3.30;;;;;;;30.11;25.92;101797.31;4968802;28;123118;-61
2023/06/16 09:56:17;;;;;;;5.30;3.20;;;;;;;30.23;26.01;101792.31;4967097;28;114998;-61
2023/06/16 09:58:45;;;;;;;4.88;3.33;;;;;;;30.31;25.20;101795.06;4969245;28;113898;-61
2023/06/16 10:01:14;;;;;;;4.38;3.03;;;;;;;30.34;24.90;101791.97;4969827;28;124661;-61
2023/06/16 10:03:43;;;;;;;4.38;3.20;;;;;;;30.34;25.19;101791.97;4967909;28;124029;-62
2023/06/16 10:06:17;;;;;;;4.03;3.40;;;;;;;30.33;24.79;101795.75;4968228;28;113472;-62
2023/06/16 10:08:47;;;;;;;5.35;3.30;;;;;;;30.31;24.85;101797.78;4956204;28;114198;-61
2023/06/16 10:11:16;;;;;;;4.32;3.47;;;;;;;30.34;24.69;101791.97;4963659;28;124482;-61
2023/06/16 10:13:50;;;;;;;4.40;3.25;;;;;;;30.36;24.43;101789.91;4964752;28;123570;-61
2023/06/16 10:16:20;;;;;;;;;;;;;;;30.34;25.30;101786.50;4958088;28;114166;-62
2023/06/16 10:18:49;;;;;;;4.53;3.20;;;;;;;30.41;24.73;101787.50;4959328;28;114467;-61
2023/06/16 10:21:16;;;;;;;4.88;3.15;;;;;;;30.47;24.32;101783.22;4961262;28;124325;-61
2023/06/16 10:23:44;;;;;;;4.72;3.30;;;;;;;30.50;24.11;101785.59;4966407;28;123962;-61
2023/06/16 10:26:12;;;;;;;3.33;2.80;;;;;;;30.52;24.00;101777.22;4952996;28;113999;-61
2023/06/16 10:28:40;;;;;;;5.43;3.40;;;;;;;30.53;23.91;101773.44;4948377;28;113921;-61
2023/06/16 10:31:08;;;;;;;5.57;3.15;;;;;;;30.57;24.24;101774.78;4966823;28;124793;-61
2023/06/16 10:33:58;;;;;;;4.50;3.30;;;;;;;30.60;24.28;101768.97;4965773;28;124285;-61
2023/06/16 10:36:31;;;;;;;6.63;3.22;;;;;;;30.61;24.31;101767.94;4968713;28;115293;-61
2023/06/16 10:39:00;;;;;;;4.55;3.35;;;;;;;30.65;24.25;101777.50;4958483;28;114791;-61
2023/06/16 10:41:29;;;;;;;11.55;3.53;;;;;;;30.67;23.57;101764.50;4962957;28;124145;-61
2023/06/16 10:44:23;;;;;;;4.97;3.33;;;;;;;30.71;23.72;101765.84;4970277;28;123779;-61
2023/06/16 10:47:08;;;;;;;5.80;3.60;;;;;;;30.73;23.84;101760.19;4949568;28;113516;-61
2023/06/16 10:49:50;;;;;;;8.23;3.55;;;;;;;30.74;23.68;101760.03;4955772;28;114318;-62
2023/06/16 10:52:18;;;;;;;5.65;3.40;;;;;;;30.77;23.79;101758.78;4962611;28;124312;-62
2023/06/16 10:54:49;;;;;;;5.60;3.30;;;;;;;30.82;23.95;101757.22;4972190;28;125812;-61
2023/06/16 10:57:16;;;;;;;4.68;3.40;;;;;;;30.91;23.45;101755.34;4971317;28;113270;-62
2023/06/16 10:59:56;;;;;;;5.60;3.20;;;;;;;30.95;23.09;101751.19;4968113;28;114269;-61
2023/06/16 11:02:29;;;;;;;5.78;3.17;;;;;;;30.94;22.85;101748.63;4959505;28;123254;-61
2023/06/16 11:05:10;;;;;;;5.40;3.53;;;;;;;30.92;23.30;101746.06;4966347;28;123072;-62
2023/06/16 11:07:39;;;;;;;4.45;3.25;;;;;;;30.96;23.02;101743.81;4968080;28;114364;-62
2023/06/16 11:10:15;;;;;;;5.50;3.28;;;;;;;31.01;22.96;101744.13;4957703;28;114501;-61
2023/06/16 11:12:46;;;;;;;5.13;3.10;;;;;;;31.05;22.62;101750.94;4965826;28;124061;-61
2023/06/16 11:15:14;;;;;;;3.70;3.33;;;;;;;31.08;23.10;101739.66;4967205;28;124698;-61
2023/06/16 11:17:47;;;;;;;5.28;3.55;;;;;;;31.12;22.75;101740.97;4964793;28;114419;-61
2023/06/16 11:20:18;;;;;;;4.60;3.85;;;;;;;31.18;22.97;101745.72;4967941;28;113961;-61
2023/06/16 11:22:46;;;;;;;4.95;3.55;;;;;;;31.27;22.54;101738.28;4967213;28;124644;-62
2023/06/16 11:25:14;;;;;;;6.68;3.78;;;;;;;31.30;22.56;101737.06;4954148;28;124004;-62